CheckWX is a tool to help pilots better visualize weather data.  It is not intended as a substitute for an official pre-flight weather briefing.

03:03:14 UTC

KJFK METAR
John F Kennedy International Airport
New York, New York, USA
Current

1 hour ago

KJFK 170151Z 13003KT 10SM SCT120 SCT250 02/M01 A3011 RMK AO2 SLP195 T00221011
Observed
Feb-17 @ 01:51 UTC
Wind
  • 130° at 3 KTS
Visibility
10 SM
Flight Rules
VFR
Cloud Levels
  • Scattered at 12,000' AGL
  • Scattered at 25,000' AGL
Temperature
C / 36°F
Dewpoint
-1°C / 30°F
Humidity
81%
Altimeter
30.11" Hg
Pressure
1019.62 hPa
Previous

2 hours ago

KJFK 170051Z 00000KT 10SM SCT110 SCT250 03/M02 A3012 RMK AO2 SLP198 T00331022
Observed
Feb-17 @ 00:51 UTC
Visibility
10 SM
Flight Rules
VFR
Cloud Levels
  • Scattered at 11,000' AGL
  • Scattered at 25,000' AGL
Temperature
C / 37°F
Dewpoint
-2°C / 28°F
Humidity
70%
Altimeter
30.12" Hg
Pressure
1020.02 hPa
Previous

3 hours ago

KJFK 162351Z 00000KT 10SM SCT150 SCT250 04/M02 A3012 RMK AO2 SLP199 T00391017 10072 20033 53009
Observed
Feb-16 @ 23:51 UTC
Visibility
10 SM
Flight Rules
VFR
Cloud Levels
  • Scattered at 15,000' AGL
  • Scattered at 25,000' AGL
Temperature
C / 39°F
Dewpoint
-2°C / 28°F
Humidity
65%
Altimeter
30.12" Hg
Pressure
1020.02 hPa